Time;durP1;ratioP1;P1;durP2;ratioP2;P2;SDS_P1;SDS_P2;PMS_P1;PMS_P2;Temp;Humidity;BMP_temperature;BMP_pressure;BME280_temperature;BME280_humidity;BME280_pressure;Samples;Min_cycle;Max_cycle;Signal;HPM_P1;HPM_P2
2021/08/08 00:01:43;;;;;;;8.70;4.43;;;18.60;99.90;;;;;;4430048;28;656746;-69
2021/08/08 00:04:30;;;;;;;7.43;4.00;;;18.70;99.90;;;;;;4424282;28;657958;-69
2021/08/08 00:07:18;;;;;;;7.47;4.13;;;18.70;99.90;;;;;;4426614;28;656663;-69
2021/08/08 00:10:07;;;;;;;11.37;4.03;;;18.70;99.90;;;;;;4436568;28;657004;-69
2021/08/08 00:12:54;;;;;;;10.47;4.00;;;18.70;99.90;;;;;;4407227;28;658242;-69
2021/08/08 00:15:43;;;;;;;7.00;3.90;;;18.80;99.90;;;;;;4413087;28;657786;-69
2021/08/08 00:18:33;;;;;;;9.73;3.93;;;18.80;99.90;;;;;;4399566;28;657370;-69
2021/08/08 00:21:21;;;;;;;11.07;4.20;;;18.90;99.90;;;;;;4406305;28;658102;-69
2021/08/08 00:24:10;;;;;;;8.07;3.87;;;18.90;99.90;;;;;;4420401;28;657788;-69
2021/08/08 00:27:00;;;;;;;5.97;3.67;;;18.90;99.90;;;;;;4429671;28;656609;-69
2021/08/08 00:29:50;;;;;;;9.50;3.70;;;18.90;99.90;;;;;;4409492;28;656833;-69
2021/08/08 00:32:40;;;;;;;10.27;3.70;;;18.90;99.90;;;;;;4423584;28;657228;-69
2021/08/08 00:35:30;;;;;;;6.47;4.00;;;19.00;99.90;;;;;;4383239;28;658343;-69
2021/08/08 00:38:19;;;;;;;6.93;3.60;;;19.00;99.90;;;;;;4410189;28;656650;-70
2021/08/08 00:41:08;;;;;;;7.83;3.47;;;19.00;99.90;;;;;;4437001;28;656783;-69
2021/08/08 00:43:56;;;;;;;8.10;3.73;;;19.00;99.90;;;;;;4421830;28;658036;-69
2021/08/08 00:46:44;;;;;;;5.97;3.53;;;19.00;99.90;;;;;;4408381;28;656221;-69
2021/08/08 00:49:33;;;;;;;5.53;3.43;;;19.00;99.90;;;;;;4429914;28;656605;-69
2021/08/08 00:52:21;;;;;;;7.07;3.30;;;19.00;99.90;;;;;;4395118;28;656828;-69
2021/08/08 00:55:09;;;;;;;4.83;3.40;;;19.00;99.90;;;;;;4412722;28;656522;-69
2021/08/08 00:57:57;;;;;;;7.07;3.90;;;19.00;99.90;;;;;;4437913;28;656363;-69
2021/08/08 01:00:44;;;;;;;7.37;3.70;;;19.00;99.90;;;;;;4393718;28;656886;-69
2021/08/08 01:03:32;;;;;;;5.63;3.70;;;19.00;99.90;;;;;;4415480;28;657090;-69
2021/08/08 01:06:22;;;;;;;5.67;3.50;;;18.90;99.90;;;;;;4402942;28;657218;-69
2021/08/08 01:09:11;;;;;;;7.35;3.50;;;18.90;99.90;;;;;;4403524;28;656997;-69
2021/08/08 01:11:58;;;;;;;5.80;3.60;;;18.90;99.90;;;;;;4405215;28;656882;-69
2021/08/08 01:14:46;;;;;;;6.23;3.50;;;18.90;99.90;;;;;;4431325;28;657591;-69
2021/08/08 01:17:33;;;;;;;5.20;3.40;;;18.90;99.90;;;;;;4400512;28;656716;-69
2021/08/08 01:20:21;;;;;;;8.77;3.40;;;18.90;99.90;;;;;;4416839;28;656900;-69
2021/08/08 01:23:12;;;;;;;6.90;3.77;;;18.90;99.90;;;;;;4417678;28;656933;-69
2021/08/08 01:26:01;;;;;;;5.33;3.50;;;18.90;99.90;;;;;;4425903;28;658082;-69
2021/08/08 01:28:49;;;;;;;6.10;3.87;;;18.90;99.90;;;;;;4400728;28;657015;-69
2021/08/08 01:31:37;;;;;;;7.07;3.87;;;18.80;99.90;;;;;;4432636;28;657743;-69
2021/08/08 01:34:24;;;;;;;6.90;3.50;;;18.80;99.90;;;;;;4425277;28;656672;-69
2021/08/08 01:37:12;;;;;;;7.10;3.60;;;18.70;99.90;;;;;;4431502;28;656563;-69
2021/08/08 01:40:03;;;;;;;8.03;4.70;;;18.70;99.90;;;;;;4410861;28;657387;-69
2021/08/08 01:42:52;;;;;;;6.27;3.63;;;18.70;99.90;;;;;;4400476;28;657656;-70
2021/08/08 01:45:42;;;;;;;7.70;3.47;;;18.60;99.90;;;;;;4404372;28;657042;-70
2021/08/08 01:48:29;;;;;;;7.70;4.40;;;18.60;99.90;;;;;;4409063;28;656899;-69
2021/08/08 01:51:17;;;;;;;6.60;3.93;;;18.50;99.90;;;;;;4434759;28;656630;-69
2021/08/08 01:54:04;;;;;;;5.10;3.50;;;18.50;99.90;;;;;;4403768;28;656989;-69
2021/08/08 01:56:52;;;;;;;4.43;3.60;;;18.40;99.90;;;;;;4427366;28;657233;-69
2021/08/08 01:59:41;;;;;;;6.93;4.07;;;18.50;99.90;;;;;;4405742;28;657226;-69
2021/08/08 02:02:29;;;;;;;8.70;3.83;;;18.50;99.90;;;;;;4425873;28;656678;-69
2021/08/08 02:05:18;;;;;;;9.20;3.80;;;18.40;99.90;;;;;;4439564;28;656819;-69
2021/08/08 02:08:07;;;;;;;7.67;3.80;;;18.50;99.90;;;;;;4396253;28;657756;-69
2021/08/08 02:10:56;;;;;;;11.73;3.77;;;18.40;99.90;;;;;;4412275;28;657024;-69
2021/08/08 02:13:44;;;;;;;9.00;3.80;;;18.40;99.90;;;;;;4400193;28;657930;-70
2021/08/08 02:16:35;;;;;;;7.33;4.20;;;18.40;99.90;;;;;;4432375;28;657273;-69
2021/08/08 02:19:23;;;;;;;10.00;3.83;;;18.40;99.90;;;;;;4408558;28;656891;-69
2021/08/08 02:22:13;;;;;;;10.80;3.80;;;18.40;99.90;;;;;;4421275;28;659359;-69
2021/08/08 02:25:03;;;;;;;7.50;3.53;;;18.40;99.90;;;;;;4399535;28;658946;-69
2021/08/08 02:27:55;;;;;;;5.37;3.60;;;18.30;99.90;;;;;;4404005;28;657624;-69
2021/08/08 02:30:42;;;;;;;5.23;3.70;;;18.40;99.90;;;;;;4399369;28;656824;-69
2021/08/08 02:33:31;;;;;;;6.43;3.30;;;18.40;99.90;;;;;;4392922;28;657762;-69
2021/08/08 02:36:19;;;;;;;5.20;2.93;;;18.50;99.90;;;;;;4398440;28;656653;-70
2021/08/08 02:39:06;;;;;;;5.03;3.17;;;18.50;99.90;;;;;;4423319;28;657090;-69
2021/08/08 02:41:54;;;;;;;4.17;2.97;;;18.60;99.90;;;;;;4403271;28;656512;-69
2021/08/08 02:44:41;;;;;;;9.20;3.63;;;18.70;99.90;;;;;;4426099;28;656664;-69
2021/08/08 02:47:30;;;;;;;6.13;3.40;;;18.70;99.90;;;;;;4427992;28;656459;-69
2021/08/08 02:50:19;;;;;;;8.90;3.33;;;18.80;99.90;;;;;;4438274;28;656750;-69
2021/08/08 02:53:07;;;;;;;6.17;3.20;;;18.80;99.90;;;;;;4446768;28;657547;-69
2021/08/08 02:55:54;;;;;;;6.03;3.20;;;18.90;99.90;;;;;;4418351;28;656809;-69
2021/08/08 02:58:42;;;;;;;7.93;3.17;;;18.90;99.90;;;;;;4444094;28;656779;-69
2021/08/08 03:01:30;;;;;;;9.47;3.37;;;19.00;99.90;;;;;;4420581;28;657861;-69
2021/08/08 03:04:17;;;;;;;5.57;2.83;;;18.90;99.90;;;;;;4423695;28;656761;-69
2021/08/08 03:07:06;;;;;;;7.97;2.97;;;18.90;99.90;;;;;;4395476;28;658340;-69
2021/08/08 03:09:54;;;;;;;4.60;3.10;;;19.00;99.90;;;;;;4401435;28;656455;-69
2021/08/08 03:12:41;;;;;;;6.50;3.50;;;19.00;99.90;;;;;;4420024;28;657229;-69
2021/08/08 03:15:29;;;;;;;7.25;3.00;;;19.00;99.90;;;;;;4402864;28;656457;-68
2021/08/08 03:18:16;;;;;;;7.47;3.43;;;19.10;99.90;;;;;;4430345;28;657663;-69
2021/08/08 03:21:04;;;;;;;8.13;3.57;;;19.20;99.90;;;;;;4404974;28;656717;-68
2021/08/08 03:23:53;;;;;;;5.83;3.33;;;19.40;99.90;;;;;;4428219;28;656739;-68
2021/08/08 03:26:40;;;;;;;8.23;3.53;;;19.60;99.90;;;;;;4400949;28;657259;-69
2021/08/08 03:29:28;;;;;;;6.53;3.70;;;19.80;99.90;;;;;;4403413;28;656856;-68
2021/08/08 03:32:15;;;;;;;10.60;3.10;;;19.80;99.90;;;;;;4417019;28;658139;-68
2021/08/08 03:35:05;;;;;;;10.87;3.33;;;19.90;99.90;;;;;;4411794;28;657520;-69
2021/08/08 03:37:52;;;;;;;5.43;3.00;;;19.90;99.90;;;;;;4420786;28;657587;-68
2021/08/08 03:40:41;;;;;;;6.83;2.63;;;19.90;99.90;;;;;;4407232;28;657872;-68
2021/08/08 03:43:29;;;;;;;4.70;2.57;;;19.90;99.90;;;;;;4410142;28;657252;-69
2021/08/08 03:46:16;;;;;;;4.53;2.23;;;20.00;99.90;;;;;;4423205;28;656873;-69
2021/08/08 03:49:04;;;;;;;6.40;2.30;;;20.00;99.90;;;;;;4411033;28;657283;-69
2021/08/08 03:51:51;;;;;;;6.10;1.87;;;20.00;99.90;;;;;;4418396;28;658318;-69
2021/08/08 03:54:39;;;;;;;4.10;2.00;;;20.00;99.90;;;;;;4393250;28;656779;-69
2021/08/08 03:57:28;;;;;;;2.90;1.80;;;20.00;99.90;;;;;;4422598;28;656942;-69
2021/08/08 04:00:15;;;;;;;3.67;2.07;;;20.00;99.90;;;;;;4411252;28;656770;-69
2021/08/08 04:03:03;;;;;;;5.77;1.70;;;19.90;99.90;;;;;;4398840;28;656512;-69
2021/08/08 04:05:51;;;;;;;5.17;1.20;;;19.80;99.90;;;;;;4429045;28;657215;-69
2021/08/08 04:08:38;;;;;;;2.47;1.10;;;19.70;99.90;;;;;;4396991;28;657107;-69
2021/08/08 04:11:26;;;;;;;3.50;1.07;;;19.50;99.90;;;;;;4421423;28;657532;-69
2021/08/08 04:14:15;;;;;;;2.00;0.73;;;19.40;99.90;;;;;;4405274;28;656475;-68
2021/08/08 04:17:03;;;;;;;4.43;0.70;;;19.20;99.90;;;;;;4418227;28;656983;-69
2021/08/08 04:19:51;;;;;;;1.43;0.83;;;19.10;99.90;;;;;;4427028;28;657488;-69
2021/08/08 04:22:38;;;;;;;2.70;0.63;;;19.00;99.90;;;;;;4407210;28;656807;-68
2021/08/08 04:25:27;;;;;;;1.67;0.80;;;18.90;99.90;;;;;;4414939;28;656931;-69
2021/08/08 04:28:15;;;;;;;1.17;0.60;;;18.90;99.90;;;;;;4400056;28;657112;-68
2021/08/08 04:31:04;;;;;;;3.67;0.70;;;18.80;99.90;;;;;;4410741;28;657139;-69
2021/08/08 04:33:52;;;;;;;0.80;0.60;;;18.70;99.90;;;;;;4412603;28;657226;-69
2021/08/08 04:36:40;;;;;;;2.27;0.80;;;18.70;99.90;;;;;;4395981;28;657368;-69
2021/08/08 04:39:27;;;;;;;3.13;0.70;;;18.60;99.90;;;;;;4417825;28;657732;-68
2021/08/08 04:42:15;;;;;;;2.63;0.73;;;18.60;99.90;;;;;;4390139;28;658311;-69
2021/08/08 04:45:02;;;;;;;0.60;0.60;;;18.60;99.90;;;;;;4422989;28;656548;-68
2021/08/08 04:47:51;;;;;;;0.83;0.73;;;18.50;99.90;;;;;;4407951;28;657955;-69
2021/08/08 04:50:39;;;;;;;1.50;0.80;;;18.50;99.90;;;;;;4400050;28;656569;-68
2021/08/08 04:53:26;;;;;;;2.13;0.73;;;18.40;99.90;;;;;;4429956;28;656605;-68
2021/08/08 04:56:14;;;;;;;2.63;0.70;;;18.30;99.90;;;;;;4410176;28;656700;-68
2021/08/08 04:59:01;;;;;;;1.67;0.80;;;18.20;99.90;;;;;;4434281;28;656330;-68
2021/08/08 05:01:49;;;;;;;1.43;0.70;;;18.10;99.90;;;;;;4424774;28;656652;-68
2021/08/08 05:04:41;;;;;;;3.10;0.67;;;18.10;99.90;;;;;;4428968;28;657112;-68
2021/08/08 05:07:28;;;;;;;3.10;0.90;;;18.10;99.90;;;;;;4381190;28;657379;-68
2021/08/08 05:10:16;;;;;;;4.60;1.10;;;18.10;99.90;;;;;;4451988;28;656408;-68
2021/08/08 05:13:04;;;;;;;3.67;0.90;;;17.90;99.90;;;;;;4423045;28;656549;-68
2021/08/08 05:15:52;;;;;;;1.90;1.23;;;17.90;99.90;;;;;;4433345;28;657169;-68
2021/08/08 05:18:39;;;;;;;0.73;0.73;;;17.80;99.90;;;;;;4413985;28;657097;-68
2021/08/08 05:21:28;;;;;;;2.17;0.80;;;17.80;99.90;;;;;;4430732;28;656822;-68
2021/08/08 05:24:18;;;;;;;3.53;1.07;;;17.70;99.90;;;;;;4397016;28;657599;-67
2021/08/08 05:27:05;;;;;;;1.27;1.00;;;17.60;99.90;;;;;;4395156;28;657504;-68
2021/08/08 05:29:53;;;;;;;3.73;0.87;;;17.40;99.90;;;;;;4410776;28;656615;-68
2021/08/08 05:32:40;;;;;;;1.90;1.00;;;17.30;99.90;;;;;;4430634;28;658032;-68
2021/08/08 05:35:28;;;;;;;3.70;1.20;;;17.30;99.90;;;;;;4401858;28;657013;-68
2021/08/08 05:38:17;;;;;;;1.37;1.20;;;17.10;99.90;;;;;;4433171;28;657264;-68
2021/08/08 05:41:05;;;;;;;2.00;1.10;;;17.00;99.90;;;;;;4398589;28;657948;-68
2021/08/08 05:43:52;;;;;;;5.10;1.20;;;16.90;99.90;;;;;;4421897;28;656998;-68
2021/08/08 05:46:40;;;;;;;5.33;1.27;;;16.80;99.90;;;;;;4406079;28;656560;-68
2021/08/08 05:49:27;;;;;;;2.90;1.23;;;16.80;99.90;;;;;;4424704;28;656663;-68
2021/08/08 05:52:15;;;;;;;3.07;1.20;;;16.80;99.90;;;;;;4408698;28;657843;-69
2021/08/08 05:55:04;;;;;;;4.53;1.40;;;16.70;99.90;;;;;;4426876;28;656774;-68
2021/08/08 05:57:52;;;;;;;1.47;1.20;;;16.70;99.90;;;;;;4393821;28;656904;-68
2021/08/08 06:00:39;;;;;;;2.07;1.10;;;16.70;99.90;;;;;;4400923;28;657500;-68
2021/08/08 06:03:27;;;;;;;4.20;1.23;;;16.70;99.90;;;;;;4421240;28;657073;-68
2021/08/08 06:06:14;;;;;;;2.97;1.47;;;16.70;99.90;;;;;;4398371;28;656960;-68
2021/08/08 06:09:02;;;;;;;4.93;1.40;;;16.80;99.90;;;;;;4427220;28;656808;-68
2021/08/08 06:11:51;;;;;;;4.33;1.23;;;16.80;99.90;;;;;;4411825;28;657398;-69
2021/08/08 06:14:38;;;;;;;4.13;1.30;;;16.70;99.90;;;;;;4401123;28;656983;-68
2021/08/08 06:17:26;;;;;;;1.27;1.03;;;16.80;99.90;;;;;;4420518;28;658277;-68
2021/08/08 06:20:14;;;;;;;3.57;1.07;;;16.80;99.90;;;;;;4398342;28;656559;-68
2021/08/08 06:23:02;;;;;;;1.97;1.10;;;16.90;99.90;;;;;;4423898;28;657089;-68
2021/08/08 06:25:50;;;;;;;4.87;1.40;;;16.80;99.90;;;;;;4407286;28;656843;-68
2021/08/08 06:28:39;;;;;;;1.90;1.13;;;16.90;99.90;;;;;;4403610;28;656379;-68
2021/08/08 06:31:27;;;;;;;3.23;0.90;;;16.80;99.90;;;;;;4423343;28;656152;-68
2021/08/08 06:34:15;;;;;;;1.97;1.10;;;16.80;99.90;;;;;;4392796;28;657595;-68
2021/08/08 06:37:02;;;;;;;2.70;1.10;;;16.80;99.90;;;;;;4420135;28;657186;-69
2021/08/08 06:39:50;;;;;;;2.00;1.10;;;16.90;99.90;;;;;;4405931;28;656818;-68
2021/08/08 06:42:38;;;;;;;1.53;1.07;;;16.90;99.90;;;;;;4428973;28;656412;-68
2021/08/08 06:45:27;;;;;;;1.53;0.73;;;16.90;99.90;;;;;;4440701;28;657900;-68
2021/08/08 06:48:15;;;;;;;1.70;1.10;;;17.00;99.90;;;;;;4410368;28;658043;-68
2021/08/08 06:51:02;;;;;;;1.30;1.10;;;17.00;99.90;;;;;;4438811;28;656789;-68
2021/08/08 06:53:50;;;;;;;2.10;1.10;;;17.00;99.90;;;;;;4417044;28;657483;-69
2021/08/08 06:56:38;;;;;;;1.53;1.20;;;17.00;99.90;;;;;;4423294;28;656388;-69
2021/08/08 06:59:30;;;;;;;1.33;1.03;;;17.00;99.90;;;;;;4418267;28;656513;-69
2021/08/08 07:02:19;;;;;;;2.23;1.20;;;17.00;99.90;;;;;;4394704;28;657007;-68
2021/08/08 07:05:08;;;;;;;2.90;1.13;;;17.00;99.90;;;;;;4408334;28;656707;-68
2021/08/08 07:07:55;;;;;;;1.20;0.90;;;17.00;99.90;;;;;;4416476;28;657521;-68
2021/08/08 07:10:43;;;;;;;2.90;1.07;;;17.00;99.90;;;;;;4408921;28;656589;-69
2021/08/08 07:13:31;;;;;;;1.43;1.10;;;17.00;99.90;;;;;;4439777;28;658041;-68
2021/08/08 07:16:18;;;;;;;1.80;1.10;;;16.90;99.90;;;;;;4410351;28;656546;-68
2021/08/08 07:19:07;;;;;;;2.67;0.90;;;17.10;99.90;;;;;;4426811;28;658134;-68
2021/08/08 07:21:55;;;;;;;1.10;1.00;;;17.30;99.90;;;;;;4391119;28;657666;-69
2021/08/08 07:24:44;;;;;;;1.80;1.00;;;17.40;99.90;;;;;;4432205;28;656127;-69
2021/08/08 07:27:32;;;;;;;1.47;0.87;;;17.70;99.90;;;;;;4408920;28;656659;-69
2021/08/08 07:30:19;;;;;;;1.00;0.87;;;17.70;99.90;;;;;;4409589;28;656984;-69
2021/08/08 07:33:07;;;;;;;2.93;1.00;;;17.90;99.90;;;;;;4432665;28;656644;-69
2021/08/08 07:35:56;;;;;;;1.37;0.90;;;17.90;99.90;;;;;;4413873;28;657050;-69
2021/08/08 07:38:43;;;;;;;1.33;0.83;;;17.90;99.90;;;;;;4413838;28;656651;-69
2021/08/08 07:41:31;;;;;;;1.87;0.80;;;18.00;99.90;;;;;;4432608;28;656842;-69
2021/08/08 07:44:19;;;;;;;1.40;1.07;;;18.20;99.90;;;;;;4414065;28;656551;-69
2021/08/08 07:47:06;;;;;;;1.27;0.90;;;18.20;99.90;;;;;;4432718;28;656807;-69
2021/08/08 07:49:54;;;;;;;1.63;0.80;;;18.30;99.90;;;;;;4413610;28;656582;-69
2021/08/08 07:52:43;;;;;;;2.27;1.00;;;18.30;99.90;;;;;;4432747;28;657256;-69
2021/08/08 07:55:31;;;;;;;2.60;0.90;;;18.40;99.90;;;;;;4410476;28;657282;-69
2021/08/08 07:58:19;;;;;;;2.10;0.90;;;18.40;99.90;;;;;;4414577;28;656549;-69
2021/08/08 08:01:06;;;;;;;2.10;0.80;;;18.40;99.90;;;;;;4432277;28;657700;-68
2021/08/08 08:03:54;;;;;;;1.77;1.00;;;18.50;99.90;;;;;;4412521;28;657019;-68
2021/08/08 08:06:41;;;;;;;1.07;0.93;;;18.70;99.90;;;;;;4432341;28;657804;-69
2021/08/08 08:09:30;;;;;;;0.97;0.80;;;18.90;99.90;;;;;;4413473;28;656512;-69
2021/08/08 08:12:18;;;;;;;1.63;0.70;;;19.20;99.90;;;;;;4414307;28;656396;-69
2021/08/08 08:15:07;;;;;;;2.23;1.10;;;19.60;99.90;;;;;;4432673;28;658329;-69
2021/08/08 08:17:54;;;;;;;1.13;0.90;;;19.80;99.90;;;;;;4413646;28;656567;-69
2021/08/08 08:20:43;;;;;;;1.97;0.80;;;19.90;99.90;;;;;;4435213;28;656546;-69
2021/08/08 08:23:30;;;;;;;1.87;1.00;;;19.80;99.90;;;;;;4413055;28;657295;-69
2021/08/08 08:26:19;;;;;;;0.70;0.70;;;19.70;99.90;;;;;;4418901;28;656420;-69
2021/08/08 08:29:07;;;;;;;0.83;0.73;;;19.80;99.90;;;;;;4434627;28;656776;-69
2021/08/08 08:31:55;;;;;;;1.47;0.87;;;19.70;99.90;;;;;;4410576;28;658174;-69
2021/08/08 08:34:42;;;;;;;1.23;0.73;;;19.60;99.90;;;;;;4434795;28;656757;-68
2021/08/08 08:37:30;;;;;;;1.23;0.90;;;19.50;99.90;;;;;;4416160;28;657540;-68
2021/08/08 08:40:18;;;;;;;0.90;0.80;;;19.60;99.90;;;;;;4425976;28;656637;-69
2021/08/08 08:43:08;;;;;;;1.73;1.00;;;19.60;99.90;;;;;;4438675;28;657512;-69
2021/08/08 08:45:56;;;;;;;0.77;0.77;;;19.60;99.90;;;;;;4411087;28;658275;-69
2021/08/08 08:48:43;;;;;;;1.07;0.70;;;19.70;99.90;;;;;;4415616;28;656890;-69
2021/08/08 08:51:34;;;;;;;1.30;1.00;;;19.90;99.90;;;;;;4437116;28;657228;-69
2021/08/08 08:54:22;;;;;;;1.53;0.97;;;20.00;99.90;;;;;;4411201;28;657120;-69
2021/08/08 08:57:10;;;;;;;1.40;1.10;;;20.20;99.90;;;;;;4415992;28;657052;-69
2021/08/08 08:59:59;;;;;;;4.30;0.90;;;19.90;99.90;;;;;;4434455;28;657039;-69
2021/08/08 09:02:46;;;;;;;3.23;1.00;;;20.00;99.90;;;;;;4410888;28;657523;-69
2021/08/08 09:05:34;;;;;;;0.70;0.70;;;19.90;99.90;;;;;;4415031;28;657088;-69
2021/08/08 09:08:22;;;;;;;2.70;1.17;;;19.90;99.90;;;;;;4433915;28;656564;-68
2021/08/08 09:11:10;;;;;;;1.30;0.73;;;19.80;99.90;;;;;;4411255;28;656883;-69
2021/08/08 09:13:58;;;;;;;0.63;0.60;;;20.00;99.90;;;;;;4432737;28;656316;-69
2021/08/08 09:16:50;;;;;;;2.40;1.00;;;20.40;99.90;;;;;;4408960;28;657817;-69
2021/08/08 09:19:38;;;;;;;1.17;1.08;;;20.60;99.90;;;;;;4376133;28;656766;-69
2021/08/08 09:22:27;;;;;;;1.00;0.90;;;21.20;99.90;;;;;;4421292;28;656725;-69
2021/08/08 09:25:20;;;;;;;1.17;0.97;;;21.60;99.90;;;;;;4419376;28;656323;-69
2021/08/08 09:28:09;;;;;;;0.77;0.77;;;21.70;99.90;;;;;;4451381;28;656504;-69
2021/08/08 09:30:57;;;;;;;1.10;1.00;;;21.90;99.90;;;;;;4451242;28;657482;-69
2021/08/08 09:33:46;;;;;;;1.23;1.00;;;21.90;99.90;;;;;;4429660;28;657790;-69
2021/08/08 09:36:41;;;;;;;0.90;0.90;;;21.90;99.90;;;;;;4432694;28;656924;-69
2021/08/08 09:39:33;;;;;;;2.30;0.87;;;22.10;99.90;;;;;;4407459;28;657226;-69
2021/08/08 09:42:22;;;;;;;0.80;0.80;;;21.60;99.90;;;;;;4428489;28;656773;-70
2021/08/08 09:45:13;;;;;;;0.70;0.70;;;21.60;99.90;;;;;;4427975;28;657598;-69
2021/08/08 09:48:01;;;;;;;1.10;0.90;;;21.30;99.90;;;;;;4428080;28;657226;-69
2021/08/08 09:50:50;;;;;;;2.40;0.90;;;21.30;99.90;;;;;;4431848;28;656650;-69
2021/08/08 09:53:38;;;;;;;2.20;0.87;;;21.90;99.90;;;;;;4447978;28;656555;-69
2021/08/08 09:56:26;;;;;;;1.23;0.90;;;22.20;99.90;;;;;;4453518;28;656760;-69
2021/08/08 09:59:13;;;;;;;3.33;0.80;;;22.40;99.90;;;;;;4432007;28;656363;-69
2021/08/08 10:02:01;;;;;;;2.43;0.90;;;22.40;99.90;;;;;;4450756;28;657733;-69
2021/08/08 10:04:49;;;;;;;1.30;0.87;;;22.40;99.90;;;;;;4432186;28;656628;-69
2021/08/08 10:07:38;;;;;;;1.50;1.00;;;22.40;99.90;;;;;;4453970;28;656335;-70
2021/08/08 10:10:26;;;;;;;0.90;0.90;;;22.80;99.90;;;;;;4428579;28;657311;-69
2021/08/08 10:13:38;;;;;;;0.73;0.73;;;23.30;99.90;;;;;;4432386;28;656437;-69
2021/08/08 10:16:26;;;;;;;1.17;0.93;;;23.30;99.90;;;;;;4427772;28;657410;-69
2021/08/08 10:19:13;;;;;;;2.93;0.80;;;23.40;99.90;;;;;;4431751;28;656407;-69
2021/08/08 10:22:01;;;;;;;1.93;0.90;;;23.40;99.90;;;;;;4453975;28;656950;-69
2021/08/08 10:24:50;;;;;;;1.10;0.90;;;23.30;99.90;;;;;;4431533;28;656524;-69
2021/08/08 10:27:38;;;;;;;0.77;0.70;;;23.40;99.90;;;;;;4446843;28;656666;-69
2021/08/08 10:30:26;;;;;;;1.50;0.80;;;23.30;99.90;;;;;;4454935;28;657589;-70
2021/08/08 10:33:14;;;;;;;1.70;1.00;;;23.60;99.90;;;;;;4431852;28;656655;-69
2021/08/08 10:36:01;;;;;;;1.20;0.90;;;23.70;99.90;;;;;;4450647;28;657777;-69
2021/08/08 10:38:49;;;;;;;1.10;1.00;;;24.10;99.90;;;;;;4431050;28;656571;-69
2021/08/08 10:41:38;;;;;;;2.73;1.00;;;24.30;99.90;;;;;;4450282;28;656892;-70
2021/08/08 10:44:26;;;;;;;2.63;0.83;;;24.60;99.90;;;;;;4428568;28;656995;-69
2021/08/08 10:47:25;;;;;;;0.83;0.80;;;23.90;99.90;;;;;;4431211;28;656471;-69
2021/08/08 10:50:14;;;;;;;1.50;1.10;;;23.40;99.90;;;;;;4426990;28;657044;-69
2021/08/08 10:53:01;;;;;;;1.70;1.17;;;23.70;99.90;;;;;;4425964;28;657753;-69
2021/08/08 10:55:49;;;;;;;1.97;1.20;;;23.60;99.90;;;;;;4431414;28;656396;-69
2021/08/08 10:58:39;;;;;;;2.33;1.20;;;23.20;99.90;;;;;;4449728;28;657229;-69
2021/08/08 11:01:27;;;;;;;2.47;1.00;;;23.20;99.90;;;;;;4426772;28;657115;-69
2021/08/08 11:04:17;;;;;;;1.83;1.10;;;23.30;99.90;;;;;;4428460;28;656373;-69
2021/08/08 11:07:05;;;;;;;1.97;1.40;;;23.80;99.90;;;;;;4431193;28;656822;-70
2021/08/08 11:09:53;;;;;;;3.35;1.20;;;24.10;99.90;;;;;;4434229;28;656733;-69
2021/08/08 11:12:41;;;;;;;2.00;1.20;;;23.80;99.90;;;;;;4454419;28;657475;-69
2021/08/08 11:15:36;;;;;;;2.47;1.30;;;23.80;99.90;;;;;;4432437;28;656584;-69
2021/08/08 11:18:31;;;;;;;2.00;1.40;;;24.10;99.90;;;;;;4404685;28;657125;-69
2021/08/08 11:21:18;;;;;;;1.73;1.20;;;24.60;99.90;;;;;;4408792;28;656470;-69
2021/08/08 11:24:09;;;;;;;3.57;1.30;;;24.70;99.90;;;;;;4451986;28;657479;-69
2021/08/08 11:26:58;;;;;;;1.60;1.10;;;24.40;99.90;;;;;;4426743;28;657258;-69
2021/08/08 11:29:57;;;;;;;1.33;1.10;;;24.40;99.90;;;;;;4425015;28;656302;-69
2021/08/08 11:33:11;;;;;;;7.73;1.20;;;24.40;99.90;;;;;;4430542;28;657010;-69
2021/08/08 11:36:07;;;;;;;1.73;1.17;;;24.50;99.90;;;;;;4430259;28;656601;-69
2021/08/08 11:39:03;;;;;;;1.93;1.00;;;24.60;99.90;;;;;;4404065;28;658299;-69
2021/08/08 11:42:02;;;;;;;2.40;1.40;;;24.50;99.90;;;;;;4426287;28;657169;-69
2021/08/08 11:44:52;;;;;;;2.20;1.00;;;24.30;99.90;;;;;;4430760;28;656541;-69
2021/08/08 11:47:45;;;;;;;1.33;0.93;;;24.80;99.90;;;;;;4430544;28;657251;-69
2021/08/08 11:50:42;;;;;;;1.92;1.35;;;25.00;99.90;;;;;;4407135;28;657027;-69
2021/08/08 11:53:33;;;;;;;1.67;1.15;;;25.30;99.90;;;;;;4402855;28;658081;-69
2021/08/08 11:56:22;;;;;;;1.35;0.90;;;25.50;99.90;;;;;;4426119;28;657866;-69
2021/08/08 11:59:09;;;;;;;2.63;1.10;;;25.10;99.90;;;;;;4430122;28;656505;-70
2021/08/08 12:02:05;;;;;;;2.15;1.17;;;24.60;99.90;;;;;;4448746;28;657551;-69
2021/08/08 12:04:58;;;;;;;0.98;0.90;;;24.40;99.90;;;;;;4426040;28;657071;-69
2021/08/08 12:07:49;;;;;;;1.03;0.90;;;24.00;99.90;;;;;;4426050;28;656800;-70
2021/08/08 12:10:37;;;;;;;1.10;0.97;;;24.30;99.90;;;;;;4425900;28;657172;-69
2021/08/08 12:13:25;;;;;;;1.73;1.20;;;25.00;99.90;;;;;;4430432;28;657171;-69
2021/08/08 12:16:14;;;;;;;1.55;1.10;;;25.30;99.90;;;;;;4441148;28;657000;-69
2021/08/08 12:19:02;;;;;;;1.40;0.90;;;24.90;99.90;;;;;;4431179;28;656956;-69
2021/08/08 12:21:50;;;;;;;0.80;0.80;;;24.80;99.90;;;;;;4429830;28;656262;-69
2021/08/08 12:24:40;;;;;;;1.27;1.00;;;24.20;99.90;;;;;;4448558;28;657176;-69
2021/08/08 12:27:31;;;;;;;1.23;1.00;;;24.20;99.90;;;;;;4401724;28;656332;-69
2021/08/08 12:30:18;;;;;;;0.83;0.80;;;24.20;99.90;;;;;;4413601;28;656670;-69
2021/08/08 12:33:07;;;;;;;2.87;1.00;;;24.20;99.90;;;;;;4432278;28;657445;-69
2021/08/08 12:35:55;;;;;;;1.30;1.10;;;24.40;99.90;;;;;;4414337;28;657039;-69
2021/08/08 12:38:50;;;;;;;2.07;1.30;;;24.30;99.90;;;;;;4422466;28;656785;-69
2021/08/08 12:41:41;;;;;;;2.27;1.13;;;24.10;99.90;;;;;;4444381;28;656155;-69
2021/08/08 12:44:33;;;;;;;2.43;1.03;;;24.30;99.90;;;;;;4413402;28;656393;-69
2021/08/08 12:47:22;;;;;;;0.90;0.90;;;24.10;99.90;;;;;;4409696;28;657348;-70
2021/08/08 12:50:17;;;;;;;1.13;0.80;;;24.80;99.90;;;;;;4411180;28;656232;-70
2021/08/08 12:53:06;;;;;;;1.05;0.80;;;24.90;99.90;;;;;;4414031;28;656386;-69
2021/08/08 12:55:55;;;;;;;3.30;0.80;;;24.60;99.90;;;;;;4414094;28;656409;-69
2021/08/08 12:58:45;;;;;;;1.15;0.80;;;24.90;99.90;;;;;;4429919;28;656799;-69
2021/08/08 13:01:33;;;;;;;1.08;0.82;;;25.40;99.90;;;;;;4432905;28;656591;-69
2021/08/08 13:04:22;;;;;;;0.75;0.60;;;25.70;99.90;;;;;;4410177;28;658253;-69
2021/08/08 13:07:20;;;;;;;0.93;0.70;;;26.20;99.90;;;;;;4433893;28;656821;-69
2021/08/08 13:10:14;;;;;;;2.15;0.80;;;26.60;99.90;;;;;;4418680;28;657025;-69
2021/08/08 13:13:12;;;;;;;1.55;0.80;;;26.50;99.90;;;;;;4428908;28;656875;-69
2021/08/08 13:16:13;;;;;;;0.95;0.75;;;26.10;99.90;;;;;;4405968;28;657115;-69
2021/08/08 13:19:17;;;;;;;1.58;0.90;;;25.60;99.90;;;;;;4405742;28;656688;-69
2021/08/08 13:22:06;;;;;;;2.95;1.10;;;25.20;99.90;;;;;;4432619;28;656777;-69
2021/08/08 13:24:53;;;;;;;1.42;0.90;;;25.30;99.90;;;;;;4432628;28;656728;-69
2021/08/08 13:27:41;;;;;;;1.10;0.82;;;25.40;99.90;;;;;;4452095;28;657242;-68
2021/08/08 13:30:29;;;;;;;1.17;0.90;;;25.10;99.90;;;;;;4432652;28;656543;-68
2021/08/08 13:33:18;;;;;;;2.90;0.70;;;25.10;99.90;;;;;;4435334;28;656829;-68
2021/08/08 13:36:06;;;;;;;1.30;0.70;;;25.30;99.90;;;;;;4412387;28;656712;-68
2021/08/08 13:38:54;;;;;;;0.90;0.70;;;25.60;99.90;;;;;;4416557;28;656818;-68
2021/08/08 13:41:42;;;;;;;1.40;0.88;;;25.60;99.90;;;;;;4435167;28;656976;-68
2021/08/08 13:44:29;;;;;;;1.25;0.90;;;25.50;99.90;;;;;;4412532;28;656406;-68
2021/08/08 13:47:17;;;;;;;1.05;0.90;;;26.00;99.90;;;;;;4434939;28;656498;-68
2021/08/08 13:50:07;;;;;;;1.08;0.70;;;26.40;99.90;;;;;;4412528;28;657761;-68
2021/08/08 13:52:54;;;;;;;0.70;0.70;;;26.60;99.90;;;;;;4415715;28;656896;-68
2021/08/08 13:55:42;;;;;;;1.55;0.80;;;26.30;99.90;;;;;;4434587;28;656311;-68
2021/08/08 13:58:31;;;;;;;0.70;0.70;;;25.80;99.90;;;;;;4428364;28;657276;-68
2021/08/08 14:01:19;;;;;;;1.20;0.80;;;25.60;99.90;;;;;;4431282;28;656456;-69
2021/08/08 14:04:06;;;;;;;2.65;0.80;;;25.60;99.90;;;;;;4450930;28;657862;-68
2021/08/08 14:06:55;;;;;;;3.33;1.10;;;25.70;99.90;;;;;;4416684;28;656548;-68
2021/08/08 14:09:43;;;;;;;1.90;0.93;;;25.70;99.90;;;;;;4416785;28;656665;-68
2021/08/08 14:12:30;;;;;;;2.33;0.90;;;25.60;99.90;;;;;;4440144;28;656887;-68
2021/08/08 14:15:19;;;;;;;1.25;0.85;;;25.70;99.90;;;;;;4415743;28;656697;-68
2021/08/08 14:18:07;;;;;;;0.82;0.70;;;25.60;99.90;;;;;;4433236;28;656297;-68
2021/08/08 14:20:54;;;;;;;1.77;0.90;;;25.50;99.90;;;;;;4416000;28;656220;-68
2021/08/08 14:23:43;;;;;;;0.77;0.70;;;25.70;99.90;;;;;;4434269;28;656584;-68
2021/08/08 14:26:31;;;;;;;0.70;0.70;;;25.70;99.90;;;;;;4411572;28;657969;-68